Hakozaki Maru — JJ3662 — position and weather

sailwx.info

Track history (hours):
 
Tides and Currents Weather Stations Pressure Air Temp Water Temp Dewpoint Dewpoint Depression Visibility Wind Speed Wind Dir Waves Ship Positions

Hakozaki Maru

Last reported at 2014-Jul-29 05:33 UTC. Time now 2014-Jul-31 17:42 UTC.
Position N 34°40' E 135°14'.

Length 31 m; draft 2.5 m.

Type: Tug. MMSI: 431000322.

Date/timePositionNaut miles runAvg speedWind from/ knotsBaromVisibWave heightAir tempDewpointWater temp
2014-Jul-29 05:33N 34°40' E 135°14'1 1.2
2014-Jul-29 04:33N 34°40' E 135°15'0 0.3
2014-Jul-29 03:33N 34°40' E 135°15'0 0.0
2014-Jul-29 02:33N 34°40' E 135°15'0 0.0
2014-Jul-29 01:33N 34°40' E 135°15'0 0.0
2014-Jul-29 00:33N 34°40' E 135°15'2 2.4
2014-Jul-28 23:33N 34°41' E 135°17'1 1.1
2014-Jul-28 22:33N 34°40' E 135°18'4 4.4
2014-Jul-28 21:33N 34°41' E 135°13'0 0.4
2014-Jul-28 20:33N 34°41' E 135°12'0 0.0
2014-Jul-28 07:33N 34°41' E 135°12'0 0.0
2014-Jul-28 06:33N 34°41' E 135°12'0 0.0
2014-Jul-28 05:33N 34°41' E 135°12'0 0.0
2014-Jul-28 04:33N 34°41' E 135°12'0 0.0
2014-Jul-28 03:33N 34°41' E 135°12'0 0.0
2014-Jul-28 02:33N 34°41' E 135°12'0 0.0
2014-Jul-28 01:33N 34°41' E 135°12'0 0.0
2014-Jul-28 00:33N 34°41' E 135°12'0 0.0
2014-Jul-27 23:33N 34°41' E 135°12'3 2.9
2014-Jul-27 22:33N 34°41' E 135°16'0 0.3
2014-Jul-27 21:33N 34°41' E 135°16'3 3.2
2014-Jul-27 20:33N 34°41' E 135°12'0 0.0
2014-Jul-27 05:30N 34°41' E 135°12'0 0.0
2014-Jul-27 04:33N 34°41' E 135°12'0 0.0
2014-Jul-27 03:34N 34°41' E 135°12'0 0.0
2014-Jul-27 02:33N 34°41' E 135°12'2 2.3
2014-Jul-27 01:33N 34°42' E 135°15'2 1.7
2014-Jul-27 00:33N 34°40' E 135°15'0 0.1
2014-Jul-26 23:33N 34°40' E 135°15'1 1.1
2014-Jul-26 22:33N 34°41' E 135°15'1 1.4
2014-Jul-26 21:33N 34°40' E 135°16'3 0.2
2014-Jul-26 03:16N 34°41' E 135°13'2 2.9
2014-Jul-26 02:33N 34°42' E 135°15'3 2.6
2014-Jul-26 01:33N 34°41' E 135°12'0 0.0
2014-Jul-26 00:33N 34°41' E 135°12'4 0.2
2014-Jul-25 05:33N 34°42' E 135°17'1 0.8
2014-Jul-25 04:34N 34°42' E 135°16'3 3.5
2014-Jul-25 03:33N 34°41' E 135°12'0 0.0
2014-Jul-25 02:33N 34°41' E 135°12'0 0.0
2014-Jul-25 01:33N 34°41' E 135°12'0 0.0
2014-Jul-25 00:33N 34°41' E 135°12'4 3.8
2014-Jul-24 23:34N 34°42' E 135°17'2 1.7
2014-Jul-24 22:34N 34°41' E 135°18'3 3.1
2014-Jul-24 21:34N 34°41' E 135°14'1 1.4
2014-Jul-24 20:33N 34°41' E 135°12'1 0.1
2014-Jul-24 08:33N 34°40' E 135°14'1 1.4
2014-Jul-24 07:33N 34°41' E 135°12'0 0.0
2014-Jul-24 06:33N 34°41' E 135°12'0 0.0
2014-Jul-24 05:33N 34°41' E 135°12'0 0.0
2014-Jul-24 04:33N 34°41' E 135°12'0 0.0
2014-Jul-24 03:34N 34°41' E 135°12'0 0.0
2014-Jul-24 02:33N 34°41' E 135°12'0 0.0
2014-Jul-24 01:34N 34°41' E 135°12'2 2.3
2014-Jul-24 00:33N 34°42' E 135°15'0 0.5
2014-Jul-23 23:34N 34°42' E 135°15'2 2.3
2014-Jul-23 22:33N 34°40' E 135°15'3 2.7
2014-Jul-23 21:34N 34°41' E 135°12'1 0.1
2014-Jul-23 10:17N 34°41' E 135°13'810.6
2014-Jul-23 09:33N 34°41' E 135°23'1 1.3
2014-Jul-23 08:33N 34°41' E 135°21'0 0.0
2014-Jul-23 07:26N 34°41' E 135°21'0 0.0
2014-Jul-23 06:33N 34°41' E 135°21'1 0.8
2014-Jul-23 05:33N 34°41' E 135°20'3 2.5
2014-Jul-23 04:33N 34°42' E 135°17'2 1.8
2014-Jul-23 03:33N 34°41' E 135°19'2 2.4
2014-Jul-23 02:33N 34°41' E 135°22'1 0.9
2014-Jul-23 01:33N 34°41' E 135°21'0 0.0
2014-Jul-23 00:33N 34°41' E 135°21'7 6.5
2014-Jul-22 23:33N 34°40' E 135°13'1 1.4
2014-Jul-22 22:33N 34°40' E 135°15'2 2.3
2014-Jul-22 21:33N 34°41' E 135°12'0 0.0
2014-Jul-22 20:33N 34°41' E 135°12'2 0.2
2014-Jul-22 07:33N 34°40' E 135°14'1 0.7
2014-Jul-22 06:33N 34°40' E 135°14'0 0.0
2014-Jul-22 05:33N 34°40' E 135°14'0 0.0
2014-Jul-22 04:33N 34°40' E 135°14'0 0.0
2014-Jul-22 03:33N 34°40' E 135°14'0 0.2
2014-Jul-22 02:33N 34°40' E 135°14'0 0.2
2014-Jul-22 01:33N 34°40' E 135°14'0 0.0
2014-Jul-22 00:33N 34°40' E 135°14'0 0.2
2014-Jul-21 23:33N 34°40' E 135°14'2 2.1
2014-Jul-21 22:33N 34°40' E 135°16'3 3.0
2014-Jul-21 21:33N 34°41' E 135°13'1 0.7
2014-Jul-21 20:33N 34°41' E 135°12'0 0.0
2014-Jul-21 05:33N 34°41' E 135°12'0 0.0
2014-Jul-21 04:33N 34°41' E 135°12'0 0.0
2014-Jul-21 03:33N 34°41' E 135°12'0 0.0
2014-Jul-21 02:33N 34°41' E 135°12'0 0.0
2014-Jul-21 01:33N 34°41' E 135°12'0 0.0
2014-Jul-21 00:33N 34°41' E 135°12'0 0.0
2014-Jul-20 23:33N 34°41' E 135°12'2 2.4
2014-Jul-20 22:33N 34°41' E 135°15'1 0.7
2014-Jul-20 21:34N 34°40' E 135°15'2 2.0
2014-Jul-20 20:33N 34°41' E 135°12'0 0.0
2014-Jul-20 04:33N 34°41' E 135°12'0 0.0
2014-Jul-20 03:33N 34°41' E 135°12'0 0.0
2014-Jul-20 02:33N 34°41' E 135°12'0 0.4
2014-Jul-20 01:33N 34°41' E 135°13'3 2.7
2014-Jul-20 00:33N 34°40' E 135°15'3 2.6
2014-Jul-19 23:33N 34°41' E 135°13'0 0.0
2014-Jul-19 05:33N 34°41' E 135°12'  
Track history (hours):
 
Tides and Currents Weather Stations Pressure Air Temp Water Temp Dewpoint Dewpoint Depression Visibility Wind Speed Wind Dir Waves Ship Positions

Hakozaki Maru

Last reported at 2014-Jul-29 05:33 UTC. Time now 2014-Jul-31 17:42 UTC.
Position N 34°40' E 135°14'.

Length 31 m; draft 2.5 m.

Type: Tug. MMSI: 431000322.

Date/timePositionNaut miles runAvg speedWind from/ knotsBaromVisibWave heightAir tempDewpointWater temp
2014-Jul-29 05:33N 34°40' E 135°14'1 1.2
2014-Jul-29 04:33N 34°40' E 135°15'0 0.3
2014-Jul-29 03:33N 34°40' E 135°15'0 0.0
2014-Jul-29 02:33N 34°40' E 135°15'0 0.0
2014-Jul-29 01:33N 34°40' E 135°15'0 0.0
2014-Jul-29 00:33N 34°40' E 135°15'2 2.4
2014-Jul-28 23:33N 34°41' E 135°17'1 1.1
2014-Jul-28 22:33N 34°40' E 135°18'4 4.4
2014-Jul-28 21:33N 34°41' E 135°13'0 0.4
2014-Jul-28 20:33N 34°41' E 135°12'0 0.0
2014-Jul-28 07:33N 34°41' E 135°12'0 0.0
2014-Jul-28 06:33N 34°41' E 135°12'0 0.0
2014-Jul-28 05:33N 34°41' E 135°12'0 0.0
2014-Jul-28 04:33N 34°41' E 135°12'0 0.0
2014-Jul-28 03:33N 34°41' E 135°12'0 0.0
2014-Jul-28 02:33N 34°41' E 135°12'0 0.0
2014-Jul-28 01:33N 34°41' E 135°12'0 0.0
2014-Jul-28 00:33N 34°41' E 135°12'0 0.0
2014-Jul-27 23:33N 34°41' E 135°12'3 2.9
2014-Jul-27 22:33N 34°41' E 135°16'0 0.3
2014-Jul-27 21:33N 34°41' E 135°16'3 3.2
2014-Jul-27 20:33N 34°41' E 135°12'0 0.0
2014-Jul-27 05:30N 34°41' E 135°12'0 0.0
2014-Jul-27 04:33N 34°41' E 135°12'0 0.0
2014-Jul-27 03:34N 34°41' E 135°12'0 0.0
2014-Jul-27 02:33N 34°41' E 135°12'2 2.3
2014-Jul-27 01:33N 34°42' E 135°15'2 1.7
2014-Jul-27 00:33N 34°40' E 135°15'0 0.1
2014-Jul-26 23:33N 34°40' E 135°15'1 1.1
2014-Jul-26 22:33N 34°41' E 135°15'1 1.4
2014-Jul-26 21:33N 34°40' E 135°16'3 0.2
2014-Jul-26 03:16N 34°41' E 135°13'2 2.9
2014-Jul-26 02:33N 34°42' E 135°15'3 2.6
2014-Jul-26 01:33N 34°41' E 135°12'0 0.0
2014-Jul-26 00:33N 34°41' E 135°12'4 0.2
2014-Jul-25 05:33N 34°42' E 135°17'1 0.8
2014-Jul-25 04:34N 34°42' E 135°16'3 3.5
2014-Jul-25 03:33N 34°41' E 135°12'0 0.0
2014-Jul-25 02:33N 34°41' E 135°12'0 0.0
2014-Jul-25 01:33N 34°41' E 135°12'0 0.0
2014-Jul-25 00:33N 34°41' E 135°12'4 3.8
2014-Jul-24 23:34N 34°42' E 135°17'2 1.7
2014-Jul-24 22:34N 34°41' E 135°18'3 3.1
2014-Jul-24 21:34N 34°41' E 135°14'1 1.4
2014-Jul-24 20:33N 34°41' E 135°12'1 0.1
2014-Jul-24 08:33N 34°40' E 135°14'1 1.4
2014-Jul-24 07:33N 34°41' E 135°12'0 0.0
2014-Jul-24 06:33N 34°41' E 135°12'0 0.0
2014-Jul-24 05:33N 34°41' E 135°12'0 0.0
2014-Jul-24 04:33N 34°41' E 135°12'0 0.0
2014-Jul-24 03:34N 34°41' E 135°12'0 0.0
2014-Jul-24 02:33N 34°41' E 135°12'0 0.0
2014-Jul-24 01:34N 34°41' E 135°12'2 2.3
2014-Jul-24 00:33N 34°42' E 135°15'0 0.5
2014-Jul-23 23:34N 34°42' E 135°15'2 2.3
2014-Jul-23 22:33N 34°40' E 135°15'3 2.7
2014-Jul-23 21:34N 34°41' E 135°12'1 0.1
2014-Jul-23 10:17N 34°41' E 135°13'810.6
2014-Jul-23 09:33N 34°41' E 135°23'1 1.3
2014-Jul-23 08:33N 34°41' E 135°21'0 0.0
2014-Jul-23 07:26N 34°41' E 135°21'0 0.0
2014-Jul-23 06:33N 34°41' E 135°21'1 0.8
2014-Jul-23 05:33N 34°41' E 135°20'3 2.5
2014-Jul-23 04:33N 34°42' E 135°17'2 1.8
2014-Jul-23 03:33N 34°41' E 135°19'2 2.4
2014-Jul-23 02:33N 34°41' E 135°22'1 0.9
2014-Jul-23 01:33N 34°41' E 135°21'0 0.0
2014-Jul-23 00:33N 34°41' E 135°21'7 6.5
2014-Jul-22 23:33N 34°40' E 135°13'1 1.4
2014-Jul-22 22:33N 34°40' E 135°15'2 2.3
2014-Jul-22 21:33N 34°41' E 135°12'0 0.0
2014-Jul-22 20:33N 34°41' E 135°12'2 0.2
2014-Jul-22 07:33N 34°40' E 135°14'1 0.7
2014-Jul-22 06:33N 34°40' E 135°14'0 0.0
2014-Jul-22 05:33N 34°40' E 135°14'0 0.0
2014-Jul-22 04:33N 34°40' E 135°14'0 0.0
2014-Jul-22 03:33N 34°40' E 135°14'0 0.2
2014-Jul-22 02:33N 34°40' E 135°14'0 0.2
2014-Jul-22 01:33N 34°40' E 135°14'0 0.0
2014-Jul-22 00:33N 34°40' E 135°14'0 0.2
2014-Jul-21 23:33N 34°40' E 135°14'2 2.1
2014-Jul-21 22:33N 34°40' E 135°16'3 3.0
2014-Jul-21 21:33N 34°41' E 135°13'1 0.7
2014-Jul-21 20:33N 34°41' E 135°12'0 0.0
2014-Jul-21 05:33N 34°41' E 135°12'0 0.0
2014-Jul-21 04:33N 34°41' E 135°12'0 0.0
2014-Jul-21 03:33N 34°41' E 135°12'0 0.0
2014-Jul-21 02:33N 34°41' E 135°12'0 0.0
2014-Jul-21 01:33N 34°41' E 135°12'0 0.0
2014-Jul-21 00:33N 34°41' E 135°12'0 0.0
2014-Jul-20 23:33N 34°41' E 135°12'2 2.4
2014-Jul-20 22:33N 34°41' E 135°15'1 0.7
2014-Jul-20 21:34N 34°40' E 135°15'2 2.0
2014-Jul-20 20:33N 34°41' E 135°12'0 0.0
2014-Jul-20 04:33N 34°41' E 135°12'0 0.0
2014-Jul-20 03:33N 34°41' E 135°12'0 0.0
2014-Jul-20 02:33N 34°41' E 135°12'0 0.4
2014-Jul-20 01:33N 34°41' E 135°13'3 2.7
2014-Jul-20 00:33N 34°40' E 135°15'3 2.6
2014-Jul-19 23:33N 34°41' E 135°13'0 0.0
2014-Jul-19 05:33N 34°41' E 135°12'  

Dump ship's entire track history